createdAt,value
2023-10-30T00:01:15.859Z,6.22
2023-10-30T00:03:43.457Z,6.78
2023-10-30T00:06:11.065Z,8.25
2023-10-30T00:08:38.483Z,7.47
2023-10-30T00:11:06.313Z,7.80
2023-10-30T00:13:33.944Z,7.80
2023-10-30T00:16:01.381Z,5.80
2023-10-30T00:18:29.472Z,6.60
2023-10-30T00:20:57.112Z,6.72
2023-10-30T00:23:25.034Z,6.20
2023-10-30T00:25:53.050Z,7.50
2023-10-30T00:28:20.420Z,9.65
2023-10-30T00:30:47.914Z,7.15
2023-10-30T00:33:15.870Z,4.95
2023-10-30T00:35:44.748Z,8.55
2023-10-30T00:38:12.191Z,10.95
2023-10-30T00:40:39.766Z,5.07
2023-10-30T00:43:07.868Z,9.07
2023-10-30T00:45:35.324Z,6.13
2023-10-30T00:48:03.109Z,9.30
2023-10-30T00:50:33.641Z,8.98
2023-10-30T00:53:01.899Z,9.95
2023-10-30T00:55:29.320Z,5.68
2023-10-30T00:57:56.794Z,8.52
2023-10-30T01:00:24.278Z,7.25
2023-10-30T01:02:52.940Z,7.68
2023-10-30T01:05:20.568Z,8.57
2023-10-30T01:07:48.041Z,7.97
2023-10-30T01:10:15.551Z,6.05
2023-10-30T01:12:43.235Z,9.02
2023-10-30T01:15:10.958Z,7.07
2023-10-30T01:17:38.546Z,8.25
2023-10-30T01:20:06.768Z,6.57
2023-10-30T01:22:34.187Z,7.90
2023-10-30T01:25:02.008Z,7.13
2023-10-30T01:27:29.560Z,9.00
2023-10-30T01:29:58.106Z,8.40
2023-10-30T01:32:25.598Z,5.82
2023-10-30T01:34:53.080Z,6.40
2023-10-30T01:37:22.144Z,8.05
2023-10-30T01:39:49.787Z,7.90
2023-10-30T01:42:17.909Z,7.68
2023-10-30T01:44:58.195Z,8.07
2023-10-30T01:47:28.882Z,9.82
2023-10-30T01:49:57.010Z,6.88
2023-10-30T01:52:25.083Z,5.35
2023-10-30T01:54:53.108Z,8.43
2023-10-30T01:57:22.513Z,9.55
2023-10-30T01:59:51.660Z,7.00
2023-10-30T02:02:20.377Z,10.18
2023-10-30T02:04:48.118Z,8.10
2023-10-30T02:07:17.939Z,9.05
2023-10-30T02:09:47.034Z,8.75
2023-10-30T02:12:14.522Z,7.95
2023-10-30T02:14:42.113Z,6.75
2023-10-30T02:17:09.806Z,8.57
2023-10-30T02:19:37.370Z,11.73
2023-10-30T02:22:04.959Z,7.95
2023-10-30T02:24:32.503Z,9.77
2023-10-30T02:27:00.137Z,6.20
2023-10-30T02:29:27.519Z,8.60
2023-10-30T02:31:55.231Z,9.23
2023-10-30T02:34:22.721Z,5.80
2023-10-30T02:36:50.273Z,6.55
2023-10-30T02:39:17.716Z,6.95
2023-10-30T02:41:45.237Z,11.30
2023-10-30T02:44:13.107Z,7.95
2023-10-30T02:46:40.502Z,12.48
2023-10-30T02:49:07.989Z,8.23
2023-10-30T02:51:35.488Z,7.28
2023-10-30T02:54:03.187Z,8.50
2023-10-30T02:56:30.652Z,9.57
2023-10-30T02:58:58.371Z,7.50
2023-10-30T03:01:26.308Z,6.95
2023-10-30T03:03:53.834Z,7.68
2023-10-30T03:06:21.561Z,7.47
2023-10-30T03:08:48.953Z,7.60
2023-10-30T03:11:16.645Z,8.98
2023-10-30T03:13:44.066Z,7.03
2023-10-30T03:16:11.786Z,8.23
2023-10-30T03:18:39.563Z,11.10
2023-10-30T03:21:06.951Z,6.55
2023-10-30T03:23:34.473Z,10.40
2023-10-30T03:26:01.975Z,7.32
2023-10-30T03:28:29.350Z,11.40
2023-10-30T03:30:56.713Z,9.93
2023-10-30T03:33:24.123Z,10.15
2023-10-30T03:35:51.909Z,11.23
2023-10-30T03:38:19.316Z,6.65
2023-10-30T03:40:46.679Z,7.97
2023-10-30T03:43:16.604Z,8.38
2023-10-30T03:45:45.655Z,8.93
2023-10-30T03:48:15.218Z,6.78
2023-10-30T03:50:44.985Z,7.60
2023-10-30T03:53:12.387Z,9.50
2023-10-30T03:55:39.825Z,8.40
2023-10-30T03:58:07.177Z,10.93
2023-10-30T04:00:34.578Z,5.85
2023-10-30T04:03:01.970Z,6.30
2023-10-30T04:05:29.687Z,7.07
2023-10-30T04:07:57.054Z,9.10
2023-10-30T04:10:24.410Z,11.70
2023-10-30T04:12:51.794Z,6.38
2023-10-30T04:15:19.573Z,7.00
2023-10-30T04:17:47.008Z,7.47
2023-10-30T04:20:14.476Z,9.20
2023-10-30T04:22:41.956Z,7.00
2023-10-30T04:25:09.487Z,6.60
2023-10-30T04:27:36.972Z,5.88
2023-10-30T04:30:04.721Z,8.13
2023-10-30T04:32:32.163Z,7.22
2023-10-30T04:34:59.593Z,6.25
2023-10-30T04:37:26.994Z,9.27
2023-10-30T04:39:54.479Z,7.88
2023-10-30T04:42:21.959Z,8.93
2023-10-30T04:44:49.388Z,6.10
2023-10-30T04:47:17.120Z,6.15
2023-10-30T04:49:47.053Z,8.20
2023-10-30T04:52:14.745Z,6.13
2023-10-30T04:54:42.171Z,6.05
2023-10-30T04:57:09.882Z,8.10
2023-10-30T04:59:37.324Z,8.73
2023-10-30T05:02:04.756Z,6.93
2023-10-30T05:04:32.421Z,5.35
2023-10-30T05:06:59.869Z,8.50
2023-10-30T05:09:27.284Z,7.75
2023-10-30T05:11:55.694Z,8.38
2023-10-30T05:14:23.278Z,8.18
2023-10-30T05:16:50.971Z,5.85
2023-10-30T05:19:18.348Z,8.77
2023-10-30T05:21:45.792Z,9.43
2023-10-30T05:24:13.265Z,7.50
2023-10-30T05:26:40.647Z,9.27
2023-10-30T05:29:08.005Z,11.68
2023-10-30T05:31:35.403Z,7.80
2023-10-30T05:34:03.022Z,8.15
2023-10-30T05:36:30.976Z,13.02
2023-10-30T05:38:58.791Z,6.78
2023-10-30T05:41:26.160Z,9.40
2023-10-30T05:43:53.924Z,10.20
2023-10-30T05:46:21.404Z,12.88
2023-10-30T05:48:48.889Z,11.55
2023-10-30T05:51:16.443Z,7.45
2023-10-30T05:53:44.422Z,7.88
2023-10-30T05:56:11.832Z,9.18
2023-10-30T05:58:39.216Z,10.48
2023-10-30T06:01:06.557Z,17.55
2023-10-30T06:03:34.021Z,9.40
2023-10-30T06:06:01.636Z,13.38
2023-10-30T06:08:29.048Z,9.25
2023-10-30T06:10:56.406Z,9.45
2023-10-30T06:13:23.760Z,7.30
2023-10-30T06:15:51.264Z,11.95
2023-10-30T06:18:18.633Z,10.13
2023-10-30T06:20:46.519Z,10.57
2023-10-30T06:23:14.132Z,13.32
2023-10-30T06:25:42.782Z,9.80
2023-10-30T06:28:11.742Z,12.98
2023-10-30T06:30:40.088Z,11.77
2023-10-30T06:33:08.023Z,12.65
2023-10-30T06:35:35.529Z,13.13
2023-10-30T06:38:02.931Z,11.57
2023-10-30T06:40:30.355Z,10.45
2023-10-30T06:42:57.726Z,9.40
2023-10-30T06:45:25.181Z,11.93
2023-10-30T06:47:52.833Z,12.68
2023-10-30T06:50:20.326Z,11.95
2023-10-30T06:52:48.729Z,14.80
2023-10-30T06:55:16.494Z,12.98
2023-10-30T06:57:44.011Z,11.25
2023-10-30T07:00:12.146Z,14.65
2023-10-30T07:02:41.522Z,12.32
2023-10-30T07:05:09.254Z,9.77
2023-10-30T07:07:37.130Z,9.50
2023-10-30T07:10:04.989Z,13.00
2023-10-30T07:12:32.472Z,20.42
2023-10-30T07:14:59.953Z,12.30
2023-10-30T07:17:27.371Z,10.02
2023-10-30T07:19:54.845Z,11.52
2023-10-30T07:22:22.218Z,9.88
2023-10-30T07:24:49.838Z,8.68
2023-10-30T07:27:19.312Z,10.02
2023-10-30T07:29:46.857Z,10.65
2023-10-30T07:32:14.275Z,8.13
2023-10-30T07:34:42.333Z,13.45
2023-10-30T07:37:09.880Z,8.77
2023-10-30T07:39:37.321Z,10.15
2023-10-30T07:42:05.067Z,9.43
2023-10-30T07:44:33.913Z,9.02
2023-10-30T07:47:02.417Z,9.50
2023-10-30T07:49:29.912Z,9.82
2023-10-30T07:51:57.325Z,9.52
2023-10-30T07:54:24.880Z,11.10
2023-10-30T07:56:52.323Z,15.80
2023-10-30T07:59:19.808Z,11.68
2023-10-30T08:01:47.309Z,13.90
2023-10-30T08:04:14.881Z,14.73
2023-10-30T08:06:42.455Z,11.48
2023-10-30T08:09:13.322Z,9.40
2023-10-30T08:11:40.786Z,10.10
2023-10-30T08:14:08.211Z,7.40
2023-10-30T08:16:37.103Z,9.55
2023-10-30T08:19:04.732Z,14.80
2023-10-30T08:21:32.138Z,10.15
2023-10-30T08:23:59.520Z,11.23
2023-10-30T08:26:27.028Z,18.33
2023-10-30T08:28:54.477Z,19.63
2023-10-30T08:31:23.962Z,8.63
2023-10-30T08:33:51.380Z,12.07
2023-10-30T08:36:23.038Z,11.43
2023-10-30T08:38:51.503Z,9.15
2023-10-30T08:41:19.784Z,11.88
2023-10-30T08:43:47.199Z,13.68
2023-10-30T08:46:18.969Z,11.88
2023-10-30T08:48:47.807Z,11.45
2023-10-30T08:51:15.250Z,11.35
2023-10-30T08:53:42.927Z,13.63
2023-10-30T08:56:11.690Z,9.50
2023-10-30T08:58:39.141Z,10.90
2023-10-30T09:01:06.552Z,8.52
2023-10-30T09:03:37.929Z,10.95
2023-10-30T09:06:05.944Z,10.88
2023-10-30T09:08:33.414Z,13.48
2023-10-30T09:11:00.832Z,11.05
2023-10-30T09:13:28.658Z,6.25
2023-10-30T09:15:56.288Z,6.05
2023-10-30T09:18:23.944Z,10.70
2023-10-30T09:20:51.442Z,13.90
2023-10-30T09:23:18.961Z,6.10
2023-10-30T09:25:46.392Z,5.93
2023-10-30T09:28:13.904Z,7.15
2023-10-30T09:30:41.817Z,6.72
2023-10-30T09:33:09.328Z,5.78
2023-10-30T09:35:38.505Z,8.90
2023-10-30T09:38:06.092Z,9.18
2023-10-30T09:40:33.545Z,12.95
2023-10-30T09:43:02.847Z,10.27
2023-10-30T09:45:30.383Z,5.55
2023-10-30T09:47:58.697Z,11.73
2023-10-30T09:50:26.786Z,6.85
2023-10-30T09:52:54.955Z,9.52
2023-10-30T09:55:25.555Z,7.55
2023-10-30T09:57:53.548Z,6.15
2023-10-30T10:00:21.504Z,11.30
2023-10-30T10:02:49.144Z,4.47
2023-10-30T10:05:18.322Z,3.45
2023-10-30T10:07:45.854Z,4.82
2023-10-30T10:10:15.611Z,4.47
2023-10-30T10:12:44.196Z,6.38
2023-10-30T10:15:12.202Z,6.05
2023-10-30T10:17:46.367Z,4.85
2023-10-30T10:20:14.063Z,3.20
2023-10-30T10:22:41.573Z,4.72
2023-10-30T10:25:11.675Z,31.88
2023-10-30T10:27:39.935Z,11.38
2023-10-30T10:30:07.945Z,5.10
2023-10-30T10:32:36.056Z,4.07
2023-10-30T10:35:03.894Z,4.82
2023-10-30T10:37:31.355Z,5.57
2023-10-30T10:39:58.898Z,8.98
2023-10-30T10:42:27.178Z,19.13
2023-10-30T10:44:56.275Z,4.22
2023-10-30T10:47:23.964Z,2.97
2023-10-30T10:49:52.201Z,7.43
2023-10-30T10:52:23.218Z,7.25
2023-10-30T10:55:11.105Z,3.80
2023-10-30T10:58:05.278Z,4.10
2023-10-30T11:00:32.785Z,6.43
2023-10-30T11:03:03.058Z,5.13
2023-10-30T11:05:30.647Z,9.02
2023-10-30T11:08:01.712Z,4.03
2023-10-30T11:10:33.097Z,4.15
2023-10-30T11:13:45.223Z,4.93
2023-10-30T11:16:27.499Z,3.90
2023-10-30T11:18:58.879Z,4.65
2023-10-30T11:21:29.668Z,4.78
2023-10-30T11:24:00.671Z,7.50
2023-10-30T11:26:37.912Z,4.15
2023-10-30T11:29:08.261Z,9.57
2023-10-30T11:32:13.753Z,5.53
2023-10-30T11:37:11.041Z,3.33
2023-10-30T11:39:39.881Z,6.80
2023-10-30T11:42:25.871Z,4.30
2023-10-30T11:44:54.573Z,5.40
2023-10-30T11:47:25.288Z,3.85
2023-10-30T11:49:56.761Z,3.42
2023-10-30T11:52:24.286Z,6.72
2023-10-30T11:54:52.272Z,3.55
2023-10-30T11:57:20.535Z,5.47
2023-10-30T11:59:51.345Z,6.20
2023-10-30T12:02:18.869Z,6.45
2023-10-30T12:04:46.566Z,12.20
2023-10-30T12:07:16.936Z,6.22
2023-10-30T12:09:44.448Z,5.82
2023-10-30T12:12:11.867Z,7.15
2023-10-30T12:14:39.508Z,7.70
2023-10-30T12:17:07.792Z,8.95
2023-10-30T12:19:36.298Z,5.22
2023-10-30T12:22:03.989Z,10.32
2023-10-30T12:24:31.569Z,6.13
2023-10-30T12:26:59.023Z,6.55
2023-10-30T12:29:26.630Z,5.22
2023-10-30T12:32:06.928Z,3.95
2023-10-30T12:34:37.810Z,8.23
2023-10-30T12:37:38.732Z,6.85
2023-10-30T12:40:10.657Z,7.72
2023-10-30T12:42:42.555Z,7.50
2023-10-30T12:45:12.642Z,3.65
2023-10-30T12:47:40.946Z,9.25
2023-10-30T12:50:09.550Z,7.75
2023-10-30T12:52:37.870Z,7.10
2023-10-30T12:55:05.962Z,7.90
2023-10-30T12:57:34.118Z,7.15
2023-10-30T13:00:01.881Z,5.70
2023-10-30T13:02:29.434Z,10.60
2023-10-30T13:04:57.025Z,6.30
2023-10-30T13:07:24.451Z,7.85
2023-10-30T13:09:51.912Z,8.13
2023-10-30T13:12:20.942Z,7.93
2023-10-30T13:14:48.587Z,8.98
2023-10-30T13:17:16.278Z,6.15
2023-10-30T13:19:43.758Z,4.53
2023-10-30T13:22:11.580Z,4.22
2023-10-30T13:24:39.207Z,5.95
2023-10-30T13:27:06.866Z,5.82
2023-10-30T13:29:34.321Z,9.98
2023-10-30T13:32:01.725Z,10.77
2023-10-30T13:34:29.652Z,5.93
2023-10-30T13:36:57.261Z,6.00
2023-10-30T13:39:24.760Z,8.25
2023-10-30T13:41:52.283Z,5.78
2023-10-30T13:44:20.005Z,6.47
2023-10-30T13:46:47.519Z,7.05
2023-10-30T13:49:17.814Z,6.10
2023-10-30T13:51:46.795Z,10.52
2023-10-30T13:54:14.424Z,10.20
2023-10-30T13:56:41.961Z,7.78
2023-10-30T13:59:09.568Z,7.50
2023-10-30T14:01:37.043Z,7.28
2023-10-30T14:04:05.230Z,11.13
2023-10-30T14:06:33.742Z,7.40
2023-10-30T14:09:02.194Z,6.82
2023-10-30T14:11:29.759Z,7.55
2023-10-30T14:13:57.358Z,4.97
2023-10-30T14:16:24.910Z,4.45
2023-10-30T14:18:52.373Z,10.88
2023-10-30T14:21:21.250Z,7.53
2023-10-30T14:23:48.628Z,8.40
2023-10-30T14:26:16.511Z,8.65
2023-10-30T14:28:43.950Z,12.40
2023-10-30T14:31:11.531Z,5.35
2023-10-30T14:33:39.041Z,8.55
2023-10-30T14:36:06.726Z,13.00
2023-10-30T14:38:34.289Z,14.63
2023-10-30T14:41:01.671Z,11.27
2023-10-30T14:43:29.180Z,9.85
2023-10-30T14:45:56.726Z,12.77
2023-10-30T14:48:24.272Z,13.18
2023-10-30T14:50:55.941Z,15.52
2023-10-30T14:53:23.687Z,10.50
2023-10-30T14:55:53.866Z,18.13
2023-10-30T14:58:21.592Z,12.27
2023-10-30T15:00:49.128Z,10.18
2023-10-30T15:03:16.607Z,12.75
2023-10-30T15:05:44.497Z,10.48
2023-10-30T15:08:11.995Z,15.00
2023-10-30T15:10:39.470Z,15.30
2023-10-30T15:13:07.085Z,11.23
2023-10-30T15:15:34.621Z,13.15
2023-10-30T15:18:02.118Z,12.68
2023-10-30T15:20:29.556Z,10.63
2023-10-30T15:22:57.082Z,12.00
2023-10-30T15:25:24.535Z,11.02
2023-10-30T15:27:53.056Z,12.20
2023-10-30T15:30:20.450Z,16.98
2023-10-30T15:32:47.923Z,11.30
2023-10-30T15:35:15.397Z,19.35
2023-10-30T15:37:43.060Z,13.70
2023-10-30T15:40:10.712Z,15.65
2023-10-30T15:42:38.533Z,12.38
2023-10-30T15:45:06.723Z,13.80
2023-10-30T15:47:36.278Z,17.80
2023-10-30T15:50:04.709Z,15.93
2023-10-30T15:57:37.066Z,13.45
2023-10-30T16:00:04.924Z,12.93
2023-10-30T16:02:39.722Z,16.08
2023-10-30T16:05:07.826Z,16.80
2023-10-30T16:07:37.453Z,14.82
2023-10-30T16:12:35.544Z,16.67
2023-10-30T16:15:07.163Z,19.52
2023-10-30T16:17:34.983Z,20.33
2023-10-30T16:20:22.479Z,23.63
2023-10-30T16:22:50.277Z,16.02
2023-10-30T16:25:18.490Z,17.35
2023-10-30T16:27:45.969Z,19.17
2023-10-30T16:30:16.278Z,19.45
2023-10-30T16:32:46.961Z,17.83
2023-10-30T16:35:14.415Z,23.80
2023-10-30T16:37:41.858Z,16.85
2023-10-30T16:40:09.814Z,20.25
2023-10-30T16:42:37.329Z,21.15
2023-10-30T16:45:05.213Z,19.05
2023-10-30T16:47:32.676Z,17.92
2023-10-30T16:50:00.279Z,20.38
2023-10-30T16:52:27.756Z,16.80
2023-10-30T16:54:55.393Z,16.27
2023-10-30T16:57:22.813Z,19.05
2023-10-30T16:59:50.683Z,25.25
2023-10-30T17:02:18.179Z,22.90
2023-10-30T17:04:45.723Z,24.60
2023-10-30T17:07:14.205Z,19.02
2023-10-30T17:09:41.648Z,31.52
2023-10-30T17:12:09.458Z,97.38
2023-10-30T17:14:36.838Z,64.22
2023-10-30T17:17:07.323Z,63.83
2023-10-30T17:19:34.983Z,42.15
2023-10-30T17:22:02.593Z,42.72
2023-10-30T17:24:29.985Z,54.00
2023-10-30T17:26:57.410Z,40.67
2023-10-30T17:29:24.832Z,27.00
2023-10-30T17:31:52.269Z,16.33
2023-10-30T17:34:20.385Z,15.10
2023-10-30T17:36:47.844Z,17.05
2023-10-30T17:39:15.655Z,13.00
2023-10-30T17:41:43.021Z,10.18
2023-10-30T17:44:10.929Z,13.80
2023-10-30T17:46:38.372Z,13.45
2023-10-30T17:49:06.650Z,14.50
2023-10-30T17:51:34.031Z,16.45
2023-10-30T17:54:01.445Z,16.65
2023-10-30T17:56:31.935Z,10.20
2023-10-30T17:58:59.548Z,10.52
2023-10-30T18:01:27.064Z,17.73
2023-10-30T18:03:54.553Z,14.23
2023-10-30T18:06:21.949Z,11.02
2023-10-30T18:08:49.711Z,13.70
2023-10-30T18:11:17.146Z,10.40
2023-10-30T18:13:44.614Z,16.60
2023-10-30T18:16:12.154Z,10.50
2023-10-30T18:18:39.687Z,10.80
2023-10-30T18:21:07.315Z,12.75
2023-10-30T18:23:35.605Z,9.40
2023-10-30T18:26:03.423Z,10.88
2023-10-30T18:28:30.921Z,8.65
2023-10-30T18:30:58.466Z,9.52
2023-10-30T18:33:30.435Z,8.07
2023-10-30T18:35:57.978Z,8.98
2023-10-30T18:38:25.345Z,10.55
2023-10-30T18:40:54.603Z,9.38
2023-10-30T18:43:22.171Z,11.35
2023-10-30T18:45:50.465Z,9.55
2023-10-30T18:48:18.349Z,10.88
2023-10-30T18:50:45.973Z,6.65
2023-10-30T18:53:13.383Z,10.73
2023-10-30T18:55:40.825Z,11.30
2023-10-30T18:58:08.286Z,7.20
2023-10-30T19:00:35.739Z,8.55
2023-10-30T19:03:03.323Z,11.27
2023-10-30T19:05:30.818Z,9.00
2023-10-30T19:07:58.355Z,9.10
2023-10-30T19:10:25.880Z,15.05
2023-10-30T19:12:53.275Z,8.65
2023-10-30T19:15:20.788Z,8.77
2023-10-30T19:17:48.325Z,10.00
2023-10-30T19:20:15.866Z,7.55
2023-10-30T19:22:43.284Z,9.32
2023-10-30T19:25:10.745Z,11.65
2023-10-30T19:27:38.319Z,8.02
2023-10-30T19:30:06.684Z,10.85
2023-10-30T19:32:34.144Z,11.30
2023-10-30T19:35:01.754Z,8.45
2023-10-30T19:37:29.458Z,10.35
2023-10-30T19:39:56.847Z,7.55
2023-10-30T19:42:24.234Z,8.93
2023-10-30T19:44:52.065Z,6.22
2023-10-30T19:47:19.513Z,8.18
2023-10-30T19:49:47.002Z,8.57
2023-10-30T19:52:14.465Z,8.00
2023-10-30T19:54:42.745Z,7.53
2023-10-30T19:57:10.163Z,4.47
2023-10-30T19:59:37.590Z,5.03
2023-10-30T20:02:05.119Z,5.95
2023-10-30T20:04:32.573Z,4.97
2023-10-30T20:06:59.956Z,8.68
2023-10-30T20:09:38.184Z,7.93
2023-10-30T20:12:13.192Z,8.80
2023-10-30T20:14:40.598Z,8.30
2023-10-30T20:17:09.878Z,9.82
2023-10-30T20:19:37.433Z,8.70
2023-10-30T20:22:04.870Z,14.95
2023-10-30T20:24:32.327Z,13.02
2023-10-30T20:26:59.749Z,11.57
2023-10-30T20:29:27.155Z,11.68
2023-10-30T20:31:54.672Z,13.20
2023-10-30T20:34:22.133Z,16.63
2023-10-30T20:36:49.665Z,14.50
2023-10-30T20:39:18.313Z,13.63
2023-10-30T20:41:46.510Z,15.75
2023-10-30T20:44:15.803Z,15.18
2023-10-30T20:46:43.757Z,15.10
2023-10-30T20:49:11.220Z,14.32
2023-10-30T20:51:39.995Z,14.05
2023-10-30T20:54:08.076Z,11.90
2023-10-30T20:56:35.732Z,17.92
2023-10-30T20:59:03.291Z,12.30
2023-10-30T21:01:30.793Z,14.73
2023-10-30T21:03:58.273Z,11.98
2023-10-30T21:06:25.656Z,14.52
2023-10-30T21:08:53.197Z,12.98
2023-10-30T21:11:20.669Z,15.73
2023-10-30T21:13:49.942Z,11.50
2023-10-30T21:16:17.366Z,16.23
2023-10-30T21:18:44.948Z,12.10
2023-10-30T21:21:12.333Z,13.88
2023-10-30T21:23:39.748Z,17.95
2023-10-30T21:26:07.413Z,15.90
2023-10-30T21:28:34.897Z,13.48
2023-10-30T21:31:02.384Z,15.48
2023-10-30T21:33:30.119Z,13.98
2023-10-30T21:35:58.221Z,14.00
2023-10-30T21:38:26.268Z,13.52
2023-10-30T21:40:53.765Z,16.70
2023-10-30T21:43:21.169Z,17.60
2023-10-30T21:45:48.764Z,17.02
2023-10-30T21:48:17.106Z,14.15
2023-10-30T21:50:44.513Z,14.20
2023-10-30T21:53:11.914Z,13.30
2023-10-30T21:55:39.384Z,12.00
2023-10-30T21:58:06.840Z,10.00
2023-10-30T22:00:37.974Z,11.00
2023-10-30T22:03:06.325Z,9.77
2023-10-30T22:05:33.779Z,9.25
2023-10-30T22:08:01.211Z,10.00
2023-10-30T22:10:28.806Z,8.93
2023-10-30T22:12:57.333Z,7.63
2023-10-30T22:15:24.713Z,9.15
2023-10-30T22:17:52.085Z,9.05
2023-10-30T22:20:19.628Z,7.20
2023-10-30T22:22:47.017Z,9.43
2023-10-30T22:25:14.494Z,7.60
2023-10-30T22:27:42.926Z,9.85
2023-10-30T22:30:10.749Z,5.72
2023-10-30T22:32:40.376Z,7.95
2023-10-30T22:35:08.207Z,8.55
2023-10-30T22:37:35.961Z,8.93
2023-10-30T22:40:03.523Z,12.38
2023-10-30T22:42:30.901Z,8.02
2023-10-30T22:44:58.256Z,10.38
2023-10-30T22:47:25.873Z,10.38
2023-10-30T22:49:53.358Z,7.68
2023-10-30T22:52:20.801Z,6.57
2023-10-30T22:54:48.157Z,10.75
2023-10-30T22:57:15.586Z,8.13
2023-10-30T22:59:43.056Z,6.78
2023-10-30T23:02:10.447Z,17.40
2023-10-30T23:04:37.908Z,9.55
2023-10-30T23:07:05.295Z,8.95
2023-10-30T23:09:32.684Z,7.00
2023-10-30T23:12:00.068Z,8.02
2023-10-30T23:14:27.483Z,9.82
2023-10-30T23:16:55.061Z,8.38
2023-10-30T23:19:22.516Z,6.45
2023-10-30T23:21:50.125Z,7.07
2023-10-30T23:24:17.483Z,8.90
2023-10-30T23:26:44.854Z,8.27
2023-10-30T23:29:12.431Z,5.25
2023-10-30T23:31:39.827Z,3.13
2023-10-30T23:34:08.748Z,4.78
2023-10-30T23:36:37.751Z,6.72
2023-10-30T23:39:05.148Z,4.65
2023-10-30T23:41:32.582Z,5.60
2023-10-30T23:44:00.056Z,6.30
2023-10-30T23:46:35.491Z,4.78
2023-10-30T23:49:08.500Z,5.15
2023-10-30T23:51:35.915Z,6.07
2023-10-30T23:54:03.354Z,2.40
2023-10-30T23:56:30.779Z,2.75
2023-10-30T23:58:59.325Z,2.63
